CheckWX is a tool to help pilots better visualize weather data.  It is not intended as a substitute for an official pre-flight weather briefing.

13:18:35 UTC

KCVG METAR
Cincinnati / Northern Kentucky International Airport
Covington, Kentucky, USA
Current

27 mins ago

KCVG 221252Z 06008KT 5SM HZ BKN180 OVC200 02/M03 A3034 RMK AO2 SLP280 T00171028
Observed
Feb-22 @ 12:52 UTC
Wind
  • 060° at 8 KTS
Visibility
5 SM
Flight Rules
MVFR
Conditions
Haze
Cloud Levels
  • Broken at 18,000' AGL
  • Overcast at 20,000' AGL
Temperature
C / 36°F
Dewpoint
-3°C / 27°F
Humidity
70%
Altimeter
30.34" Hg
Pressure
1028 hPa
Previous

1 hour ago

KCVG 221152Z 03009KT 7SM OVC200 02/M02 A3034 RMK AO2 SLP277 T00221022 10044 20022 53021
Observed
Feb-22 @ 11:52 UTC
Wind
  • 030° at 9 KTS
Visibility
7 SM
Flight Rules
VFR
Cloud Levels
  • Overcast at 20,000' AGL
Temperature
C / 36°F
Dewpoint
-2°C / 28°F
Humidity
75%
Altimeter
30.34" Hg
Pressure
1027.7 hPa
Previous

2 hours ago

KCVG 221052Z 03008KT 7SM OVC200 02/M02 A3032 RMK AO2 SLP269 T00221022
Observed
Feb-22 @ 10:52 UTC
Wind
  • 030° at 8 KTS
Visibility
7 SM
Flight Rules
VFR
Cloud Levels
  • Overcast at 20,000' AGL
Temperature
C / 36°F
Dewpoint
-2°C / 28°F
Humidity
75%
Altimeter
30.32" Hg
Pressure
1026.9 hPa